X  Sluiten METAR luchtvaart weer gegevens      LFQQ Lille-Lesquin Airport
Temperatuur
8°C Temperatuur
-7°C Dauwpunt
34% Vochtigheid



Wind
8 KM/U
5 MPH
2 M/S
4 KTS



140°
ZO
Huidig weer

Helder Helder
Luchtdruk 1033.92 (hPa) - 30.53 (inHg)
Zicht 6.2 (mijl) - 10 (km)
Vliegveld
Vliegveld code LFQQ

Locatie : Lille-Lesquin Airport
Afstand: 45 (km)

Metar:
LFQQ 081430Z AUTO 14004KT CAVOK 08/M07 Q1034 NOSIG

Tijd: 08-02-2023 14:30 CET